sensor_id;sensor_type;location;lat;lon;timestamp;P1;durP1;ratioP1;P2;durP2;ratioP2
29730;SDS011;16639;51.488;0.152;2023-04-24T00:01:53;37.47;;;23.67;;
29730;SDS011;16639;51.488;0.152;2023-04-24T00:04:20;35.45;;;23.33;;
29730;SDS011;16639;51.488;0.152;2023-04-24T00:06:49;39.80;;;24.75;;
29730;SDS011;16639;51.488;0.152;2023-04-24T00:09:20;42.25;;;25.92;;
29730;SDS011;16639;51.488;0.152;2023-04-24T00:11:47;42.72;;;25.92;;
29730;SDS011;16639;51.488;0.152;2023-04-24T00:14:15;39.20;;;26.52;;
29730;SDS011;16639;51.488;0.152;2023-04-24T00:16:43;42.53;;;27.83;;
29730;SDS011;16639;51.488;0.152;2023-04-24T00:19:10;51.35;;;29.73;;
29730;SDS011;16639;51.488;0.152;2023-04-24T00:21:40;47.25;;;31.80;;
29730;SDS011;16639;51.488;0.152;2023-04-24T00:24:08;51.97;;;30.90;;
29730;SDS011;16639;51.488;0.152;2023-04-24T00:26:36;50.25;;;30.48;;
29730;SDS011;16639;51.488;0.152;2023-04-24T00:29:03;50.95;;;31.70;;
29730;SDS011;16639;51.488;0.152;2023-04-24T00:31:30;54.58;;;31.55;;
29730;SDS011;16639;51.488;0.152;2023-04-24T00:33:58;52.22;;;32.45;;
29730;SDS011;16639;51.488;0.152;2023-04-24T00:36:26;55.13;;;32.13;;
29730;SDS011;16639;51.488;0.152;2023-04-24T00:38:54;49.35;;;31.48;;
29730;SDS011;16639;51.488;0.152;2023-04-24T00:41:22;47.38;;;29.02;;
29730;SDS011;16639;51.488;0.152;2023-04-24T00:43:49;52.65;;;32.50;;
29730;SDS011;16639;51.488;0.152;2023-04-24T00:46:18;52.20;;;31.30;;
29730;SDS011;16639;51.488;0.152;2023-04-24T00:48:46;52.17;;;30.38;;
29730;SDS011;16639;51.488;0.152;2023-04-24T00:51:13;47.67;;;31.00;;
29730;SDS011;16639;51.488;0.152;2023-04-24T00:53:41;51.65;;;31.70;;
29730;SDS011;16639;51.488;0.152;2023-04-24T00:56:09;46.85;;;29.33;;
29730;SDS011;16639;51.488;0.152;2023-04-24T00:58:37;43.35;;;27.63;;
29730;SDS011;16639;51.488;0.152;2023-04-24T01:01:05;50.20;;;31.30;;
29730;SDS011;16639;51.488;0.152;2023-04-24T01:03:34;43.25;;;27.88;;
29730;SDS011;16639;51.488;0.152;2023-04-24T01:06:04;48.28;;;30.27;;
29730;SDS011;16639;51.488;0.152;2023-04-24T01:08:32;45.33;;;29.42;;
29730;SDS011;16639;51.488;0.152;2023-04-24T01:11:01;49.28;;;29.60;;
29730;SDS011;16639;51.488;0.152;2023-04-24T01:13:31;46.17;;;28.33;;
29730;SDS011;16639;51.488;0.152;2023-04-24T01:15:59;46.55;;;29.35;;
29730;SDS011;16639;51.488;0.152;2023-04-24T01:18:27;48.88;;;29.77;;
29730;SDS011;16639;51.488;0.152;2023-04-24T01:20:58;52.35;;;30.10;;
29730;SDS011;16639;51.488;0.152;2023-04-24T01:23:28;45.60;;;29.20;;
29730;SDS011;16639;51.488;0.152;2023-04-24T01:25:56;43.53;;;27.50;;
29730;SDS011;16639;51.488;0.152;2023-04-24T01:28:23;44.42;;;27.60;;
29730;SDS011;16639;51.488;0.152;2023-04-24T01:30:51;44.17;;;27.88;;
29730;SDS011;16639;51.488;0.152;2023-04-24T01:33:20;42.67;;;27.15;;
29730;SDS011;16639;51.488;0.152;2023-04-24T01:35:48;46.25;;;27.88;;
29730;SDS011;16639;51.488;0.152;2023-04-24T01:38:16;43.33;;;27.67;;
29730;SDS011;16639;51.488;0.152;2023-04-24T01:44:45;45.70;;;28.02;;
29730;SDS011;16639;51.488;0.152;2023-04-24T01:48:21;45.22;;;28.23;;
29730;SDS011;16639;51.488;0.152;2023-04-24T01:55:29;45.35;;;27.27;;
29730;SDS011;16639;51.488;0.152;2023-04-24T02:22:19;42.35;;;25.77;;
29730;SDS011;16639;51.488;0.152;2023-04-24T02:29:30;42.13;;;24.88;;
29730;SDS011;16639;51.488;0.152;2023-04-24T02:31:57;42.15;;;24.95;;
29730;SDS011;16639;51.488;0.152;2023-04-24T02:34:25;45.03;;;24.98;;
29730;SDS011;16639;51.488;0.152;2023-04-24T02:36:53;46.75;;;26.20;;
29730;SDS011;16639;51.488;0.152;2023-04-24T02:39:23;42.72;;;26.60;;
29730;SDS011;16639;51.488;0.152;2023-04-24T02:41:50;45.70;;;28.15;;
29730;SDS011;16639;51.488;0.152;2023-04-24T02:44:17;44.05;;;26.23;;
29730;SDS011;16639;51.488;0.152;2023-04-24T02:46:45;42.92;;;24.17;;
29730;SDS011;16639;51.488;0.152;2023-04-24T02:49:12;40.70;;;25.90;;
29730;SDS011;16639;51.488;0.152;2023-04-24T02:51:39;42.60;;;24.17;;
29730;SDS011;16639;51.488;0.152;2023-04-24T02:54:08;35.15;;;22.65;;
29730;SDS011;16639;51.488;0.152;2023-04-24T02:56:36;44.35;;;24.80;;
29730;SDS011;16639;51.488;0.152;2023-04-24T02:59:04;40.55;;;23.65;;
29730;SDS011;16639;51.488;0.152;2023-04-24T03:01:31;42.58;;;24.38;;
29730;SDS011;16639;51.488;0.152;2023-04-24T03:03:59;34.50;;;21.58;;
29730;SDS011;16639;51.488;0.152;2023-04-24T03:06:27;39.45;;;21.63;;
29730;SDS011;16639;51.488;0.152;2023-04-24T03:08:55;36.10;;;22.63;;
29730;SDS011;16639;51.488;0.152;2023-04-24T03:11:22;39.65;;;22.63;;
29730;SDS011;16639;51.488;0.152;2023-04-24T03:13:49;34.60;;;20.80;;
29730;SDS011;16639;51.488;0.152;2023-04-24T03:16:17;34.25;;;22.13;;
29730;SDS011;16639;51.488;0.152;2023-04-24T03:18:44;39.20;;;21.38;;
29730;SDS011;16639;51.488;0.152;2023-04-24T03:21:11;39.47;;;22.85;;
29730;SDS011;16639;51.488;0.152;2023-04-24T03:23:39;39.88;;;22.55;;
29730;SDS011;16639;51.488;0.152;2023-04-24T03:26:06;35.13;;;21.83;;
29730;SDS011;16639;51.488;0.152;2023-04-24T03:28:34;30.23;;;19.73;;
29730;SDS011;16639;51.488;0.152;2023-04-24T03:31:02;34.30;;;21.92;;
29730;SDS011;16639;51.488;0.152;2023-04-24T03:33:30;41.13;;;22.13;;
29730;SDS011;16639;51.488;0.152;2023-04-24T03:35:58;38.05;;;24.70;;
29730;SDS011;16639;51.488;0.152;2023-04-24T03:38:25;33.53;;;20.67;;
29730;SDS011;16639;51.488;0.152;2023-04-24T03:40:53;35.25;;;21.00;;
29730;SDS011;16639;51.488;0.152;2023-04-24T03:43:20;41.63;;;25.15;;
29730;SDS011;16639;51.488;0.152;2023-04-24T03:45:47;45.50;;;27.38;;
29730;SDS011;16639;51.488;0.152;2023-04-24T03:48:15;51.00;;;29.35;;
29730;SDS011;16639;51.488;0.152;2023-04-24T03:50:42;45.17;;;28.00;;
29730;SDS011;16639;51.488;0.152;2023-04-24T03:53:10;42.75;;;26.77;;
29730;SDS011;16639;51.488;0.152;2023-04-24T03:55:38;50.33;;;29.42;;
29730;SDS011;16639;51.488;0.152;2023-04-24T03:58:05;47.88;;;27.52;;
29730;SDS011;16639;51.488;0.152;2023-04-24T04:00:32;47.30;;;28.83;;
29730;SDS011;16639;51.488;0.152;2023-04-24T04:03:01;41.78;;;25.38;;
29730;SDS011;16639;51.488;0.152;2023-04-24T04:05:28;46.92;;;22.67;;
29730;SDS011;16639;51.488;0.152;2023-04-24T04:07:56;33.45;;;21.27;;
29730;SDS011;16639;51.488;0.152;2023-04-24T04:10:24;34.65;;;20.60;;
29730;SDS011;16639;51.488;0.152;2023-04-24T04:12:51;34.90;;;18.20;;
29730;SDS011;16639;51.488;0.152;2023-04-24T04:15:18;33.67;;;19.48;;
29730;SDS011;16639;51.488;0.152;2023-04-24T04:17:46;33.30;;;19.63;;
29730;SDS011;16639;51.488;0.152;2023-04-24T04:20:14;31.88;;;15.88;;
29730;SDS011;16639;51.488;0.152;2023-04-24T04:22:41;30.92;;;15.98;;
29730;SDS011;16639;51.488;0.152;2023-04-24T04:25:10;24.63;;;15.73;;
29730;SDS011;16639;51.488;0.152;2023-04-24T04:27:38;25.35;;;15.38;;
29730;SDS011;16639;51.488;0.152;2023-04-24T04:30:06;24.92;;;15.07;;
29730;SDS011;16639;51.488;0.152;2023-04-24T04:32:34;29.63;;;17.25;;
29730;SDS011;16639;51.488;0.152;2023-04-24T04:35:01;29.77;;;18.65;;
29730;SDS011;16639;51.488;0.152;2023-04-24T04:37:30;36.35;;;18.35;;
29730;SDS011;16639;51.488;0.152;2023-04-24T04:39:58;24.33;;;15.13;;
29730;SDS011;16639;51.488;0.152;2023-04-24T04:42:26;29.90;;;15.73;;
29730;SDS011;16639;51.488;0.152;2023-04-24T04:44:57;23.08;;;11.65;;
29730;SDS011;16639;51.488;0.152;2023-04-24T04:47:24;21.67;;;12.65;;
29730;SDS011;16639;51.488;0.152;2023-04-24T04:49:53;24.52;;;11.52;;
29730;SDS011;16639;51.488;0.152;2023-04-24T04:52:20;19.63;;;9.98;;
29730;SDS011;16639;51.488;0.152;2023-04-24T04:54:52;23.65;;;10.23;;
29730;SDS011;16639;51.488;0.152;2023-04-24T04:57:19;23.88;;;10.98;;
29730;SDS011;16639;51.488;0.152;2023-04-24T04:59:48;18.02;;;9.15;;
29730;SDS011;16639;51.488;0.152;2023-04-24T05:02:15;21.48;;;12.25;;
29730;SDS011;16639;51.488;0.152;2023-04-24T05:04:43;25.17;;;10.45;;
29730;SDS011;16639;51.488;0.152;2023-04-24T05:07:12;17.50;;;10.63;;
29730;SDS011;16639;51.488;0.152;2023-04-24T05:09:39;24.52;;;11.52;;
29730;SDS011;16639;51.488;0.152;2023-04-24T05:12:07;24.85;;;12.90;;
29730;SDS011;16639;51.488;0.152;2023-04-24T05:14:35;24.27;;;11.65;;
29730;SDS011;16639;51.488;0.152;2023-04-24T05:17:02;25.77;;;11.32;;
29730;SDS011;16639;51.488;0.152;2023-04-24T05:19:30;22.48;;;10.10;;
29730;SDS011;16639;51.488;0.152;2023-04-24T05:22:02;23.17;;;11.68;;
29730;SDS011;16639;51.488;0.152;2023-04-24T05:24:31;22.10;;;11.27;;
29730;SDS011;16639;51.488;0.152;2023-04-24T05:26:59;22.85;;;11.82;;
29730;SDS011;16639;51.488;0.152;2023-04-24T05:29:26;22.48;;;12.50;;
29730;SDS011;16639;51.488;0.152;2023-04-24T05:31:54;25.05;;;12.85;;
29730;SDS011;16639;51.488;0.152;2023-04-24T05:34:22;22.98;;;13.85;;
29730;SDS011;16639;51.488;0.152;2023-04-24T05:36:49;22.55;;;11.68;;
29730;SDS011;16639;51.488;0.152;2023-04-24T05:39:17;33.88;;;15.00;;
29730;SDS011;16639;51.488;0.152;2023-04-24T05:41:46;21.33;;;11.27;;
29730;SDS011;16639;51.488;0.152;2023-04-24T05:44:13;27.67;;;11.57;;
29730;SDS011;16639;51.488;0.152;2023-04-24T05:46:40;19.92;;;9.50;;
29730;SDS011;16639;51.488;0.152;2023-04-24T05:49:08;21.20;;;9.40;;
29730;SDS011;16639;51.488;0.152;2023-04-24T05:51:35;12.20;;;7.25;;
29730;SDS011;16639;51.488;0.152;2023-04-24T05:54:02;13.98;;;7.55;;
29730;SDS011;16639;51.488;0.152;2023-04-24T05:56:30;12.13;;;7.20;;
29730;SDS011;16639;51.488;0.152;2023-04-24T05:58:57;12.55;;;7.03;;
29730;SDS011;16639;51.488;0.152;2023-04-24T06:01:25;18.80;;;6.47;;
29730;SDS011;16639;51.488;0.152;2023-04-24T06:03:52;15.93;;;4.57;;
29730;SDS011;16639;51.488;0.152;2023-04-24T06:06:20;15.63;;;4.95;;
29730;SDS011;16639;51.488;0.152;2023-04-24T06:08:47;14.70;;;6.90;;
29730;SDS011;16639;51.488;0.152;2023-04-24T06:11:15;12.20;;;5.28;;
29730;SDS011;16639;51.488;0.152;2023-04-24T06:13:42;12.07;;;6.40;;
29730;SDS011;16639;51.488;0.152;2023-04-24T06:16:10;15.68;;;6.18;;
29730;SDS011;16639;51.488;0.152;2023-04-24T06:18:37;13.77;;;6.43;;
29730;SDS011;16639;51.488;0.152;2023-04-24T06:21:05;14.52;;;6.13;;
29730;SDS011;16639;51.488;0.152;2023-04-24T06:23:32;10.73;;;6.07;;
29730;SDS011;16639;51.488;0.152;2023-04-24T06:26:00;11.50;;;6.65;;
29730;SDS011;16639;51.488;0.152;2023-04-24T06:28:27;7.22;;;4.60;;
29730;SDS011;16639;51.488;0.152;2023-04-24T06:30:55;16.10;;;5.28;;
29730;SDS011;16639;51.488;0.152;2023-04-24T06:33:22;15.05;;;5.00;;
29730;SDS011;16639;51.488;0.152;2023-04-24T06:35:50;16.33;;;4.97;;
29730;SDS011;16639;51.488;0.152;2023-04-24T06:38:17;12.93;;;4.15;;
29730;SDS011;16639;51.488;0.152;2023-04-24T06:40:45;12.95;;;3.90;;
29730;SDS011;16639;51.488;0.152;2023-04-24T06:43:12;11.90;;;4.25;;
29730;SDS011;16639;51.488;0.152;2023-04-24T06:45:41;7.13;;;3.75;;
29730;SDS011;16639;51.488;0.152;2023-04-24T06:48:10;10.43;;;3.92;;
29730;SDS011;16639;51.488;0.152;2023-04-24T06:50:38;13.02;;;3.58;;
29730;SDS011;16639;51.488;0.152;2023-04-24T06:53:05;6.10;;;3.53;;
29730;SDS011;16639;51.488;0.152;2023-04-24T06:55:33;10.80;;;2.85;;
29730;SDS011;16639;51.488;0.152;2023-04-24T06:58:00;11.05;;;3.28;;
29730;SDS011;16639;51.488;0.152;2023-04-24T07:00:28;11.43;;;3.50;;
29730;SDS011;16639;51.488;0.152;2023-04-24T07:02:56;16.05;;;5.20;;
29730;SDS011;16639;51.488;0.152;2023-04-24T07:05:24;14.82;;;3.70;;
29730;SDS011;16639;51.488;0.152;2023-04-24T07:07:51;8.48;;;4.10;;
29730;SDS011;16639;51.488;0.152;2023-04-24T07:10:20;5.93;;;3.13;;
29730;SDS011;16639;51.488;0.152;2023-04-24T07:12:49;10.63;;;4.07;;
29730;SDS011;16639;51.488;0.152;2023-04-24T07:15:17;9.88;;;2.90;;
29730;SDS011;16639;51.488;0.152;2023-04-24T07:17:44;10.60;;;3.55;;
29730;SDS011;16639;51.488;0.152;2023-04-24T07:20:12;7.45;;;2.80;;
29730;SDS011;16639;51.488;0.152;2023-04-24T07:22:41;12.82;;;4.80;;
29730;SDS011;16639;51.488;0.152;2023-04-24T07:25:08;11.13;;;3.95;;
29730;SDS011;16639;51.488;0.152;2023-04-24T07:27:36;10.50;;;3.33;;
29730;SDS011;16639;51.488;0.152;2023-04-24T07:30:04;10.95;;;4.05;;
29730;SDS011;16639;51.488;0.152;2023-04-24T07:32:32;12.88;;;3.70;;
29730;SDS011;16639;51.488;0.152;2023-04-24T07:34:59;7.40;;;3.55;;
29730;SDS011;16639;51.488;0.152;2023-04-24T07:37:28;7.13;;;3.17;;
29730;SDS011;16639;51.488;0.152;2023-04-24T07:39:56;7.82;;;4.15;;
29730;SDS011;16639;51.488;0.152;2023-04-24T07:42:27;6.80;;;2.95;;
29730;SDS011;16639;51.488;0.152;2023-04-24T07:44:57;7.10;;;3.47;;
29730;SDS011;16639;51.488;0.152;2023-04-24T07:47:26;10.00;;;3.80;;
29730;SDS011;16639;51.488;0.152;2023-04-24T07:49:54;8.68;;;4.10;;
29730;SDS011;16639;51.488;0.152;2023-04-24T07:52:21;8.95;;;3.80;;
29730;SDS011;16639;51.488;0.152;2023-04-24T07:54:49;8.23;;;3.47;;
29730;SDS011;16639;51.488;0.152;2023-04-24T07:57:16;13.00;;;4.28;;
29730;SDS011;16639;51.488;0.152;2023-04-24T07:59:44;13.07;;;4.93;;
29730;SDS011;16639;51.488;0.152;2023-04-24T08:02:11;7.72;;;3.53;;
29730;SDS011;16639;51.488;0.152;2023-04-24T08:04:40;4.68;;;2.70;;
29730;SDS011;16639;51.488;0.152;2023-04-24T08:07:07;11.40;;;3.20;;
29730;SDS011;16639;51.488;0.152;2023-04-24T08:09:35;11.73;;;3.35;;
29730;SDS011;16639;51.488;0.152;2023-04-24T08:12:02;9.88;;;3.25;;
29730;SDS011;16639;51.488;0.152;2023-04-24T08:14:30;6.93;;;3.47;;
29730;SDS011;16639;51.488;0.152;2023-04-24T08:16:57;6.53;;;3.25;;
29730;SDS011;16639;51.488;0.152;2023-04-24T08:19:27;10.88;;;3.92;;
29730;SDS011;16639;51.488;0.152;2023-04-24T08:21:54;14.00;;;3.30;;
29730;SDS011;16639;51.488;0.152;2023-04-24T08:24:22;8.60;;;3.13;;
29730;SDS011;16639;51.488;0.152;2023-04-24T08:26:52;10.50;;;3.55;;
29730;SDS011;16639;51.488;0.152;2023-04-24T08:29:23;7.70;;;3.25;;
29730;SDS011;16639;51.488;0.152;2023-04-24T08:31:51;15.25;;;3.30;;
29730;SDS011;16639;51.488;0.152;2023-04-24T08:34:21;5.30;;;2.83;;
29730;SDS011;16639;51.488;0.152;2023-04-24T08:36:49;7.32;;;2.60;;
29730;SDS011;16639;51.488;0.152;2023-04-24T08:39:16;11.02;;;3.75;;
29730;SDS011;16639;51.488;0.152;2023-04-24T08:41:45;10.60;;;3.65;;
29730;SDS011;16639;51.488;0.152;2023-04-24T08:44:12;7.20;;;3.20;;
29730;SDS011;16639;51.488;0.152;2023-04-24T08:46:42;8.13;;;3.85;;
29730;SDS011;16639;51.488;0.152;2023-04-24T08:49:14;8.88;;;3.58;;
29730;SDS011;16639;51.488;0.152;2023-04-24T08:51:43;6.95;;;4.50;;
29730;SDS011;16639;51.488;0.152;2023-04-24T08:54:12;9.20;;;3.60;;
29730;SDS011;16639;51.488;0.152;2023-04-24T08:56:40;10.82;;;3.75;;
29730;SDS011;16639;51.488;0.152;2023-04-24T08:59:12;10.35;;;3.53;;
29730;SDS011;16639;51.488;0.152;2023-04-24T09:01:41;7.40;;;3.70;;
29730;SDS011;16639;51.488;0.152;2023-04-24T09:04:11;10.35;;;4.82;;
29730;SDS011;16639;51.488;0.152;2023-04-24T09:06:44;15.10;;;4.95;;
29730;SDS011;16639;51.488;0.152;2023-04-24T09:09:12;11.52;;;4.40;;
29730;SDS011;16639;51.488;0.152;2023-04-24T09:11:40;9.52;;;4.55;;
29730;SDS011;16639;51.488;0.152;2023-04-24T09:14:08;13.80;;;4.72;;
29730;SDS011;16639;51.488;0.152;2023-04-24T09:16:36;10.05;;;4.18;;
29730;SDS011;16639;51.488;0.152;2023-04-24T09:19:04;11.73;;;4.93;;
29730;SDS011;16639;51.488;0.152;2023-04-24T09:21:34;10.82;;;5.40;;
29730;SDS011;16639;51.488;0.152;2023-04-24T09:24:03;6.63;;;4.63;;
29730;SDS011;16639;51.488;0.152;2023-04-24T09:26:36;9.02;;;4.30;;
29730;SDS011;16639;51.488;0.152;2023-04-24T09:29:04;9.98;;;4.50;;
29730;SDS011;16639;51.488;0.152;2023-04-24T09:31:31;8.23;;;4.50;;
29730;SDS011;16639;51.488;0.152;2023-04-24T09:34:00;14.15;;;4.63;;
29730;SDS011;16639;51.488;0.152;2023-04-24T09:36:35;9.70;;;4.70;;
29730;SDS011;16639;51.488;0.152;2023-04-24T09:39:06;15.45;;;4.22;;
29730;SDS011;16639;51.488;0.152;2023-04-24T09:41:45;11.88;;;4.72;;
29730;SDS011;16639;51.488;0.152;2023-04-24T09:44:14;10.98;;;4.60;;
29730;SDS011;16639;51.488;0.152;2023-04-24T09:46:45;10.93;;;5.07;;
29730;SDS011;16639;51.488;0.152;2023-04-24T09:49:21;9.57;;;4.63;;
29730;SDS011;16639;51.488;0.152;2023-04-24T09:52:01;9.52;;;5.00;;
29730;SDS011;16639;51.488;0.152;2023-04-24T09:54:30;13.85;;;4.90;;
29730;SDS011;16639;51.488;0.152;2023-04-24T09:56:58;14.45;;;4.85;;
29730;SDS011;16639;51.488;0.152;2023-04-24T09:59:29;11.70;;;4.95;;
29730;SDS011;16639;51.488;0.152;2023-04-24T10:01:57;9.15;;;4.82;;
29730;SDS011;16639;51.488;0.152;2023-04-24T10:04:27;9.10;;;5.18;;
29730;SDS011;16639;51.488;0.152;2023-04-24T10:06:55;10.32;;;4.97;;
29730;SDS011;16639;51.488;0.152;2023-04-24T10:09:24;10.07;;;4.85;;
29730;SDS011;16639;51.488;0.152;2023-04-24T10:11:54;15.93;;;4.85;;
29730;SDS011;16639;51.488;0.152;2023-04-24T10:14:23;14.35;;;6.07;;
29730;SDS011;16639;51.488;0.152;2023-04-24T10:16:54;13.07;;;4.93;;
29730;SDS011;16639;51.488;0.152;2023-04-24T10:19:23;11.15;;;6.32;;
29730;SDS011;16639;51.488;0.152;2023-04-24T10:21:52;8.13;;;4.45;;
29730;SDS011;16639;51.488;0.152;2023-04-24T10:24:22;8.27;;;4.90;;
29730;SDS011;16639;51.488;0.152;2023-04-24T10:26:49;14.05;;;5.97;;
29730;SDS011;16639;51.488;0.152;2023-04-24T10:29:18;13.70;;;5.40;;
29730;SDS011;16639;51.488;0.152;2023-04-24T10:31:46;20.70;;;6.13;;
29730;SDS011;16639;51.488;0.152;2023-04-24T10:34:15;16.20;;;5.28;;
29730;SDS011;16639;51.488;0.152;2023-04-24T10:36:46;17.35;;;6.82;;
29730;SDS011;16639;51.488;0.152;2023-04-24T10:39:17;9.25;;;4.85;;
29730;SDS011;16639;51.488;0.152;2023-04-24T10:41:53;13.38;;;5.20;;
29730;SDS011;16639;51.488;0.152;2023-04-24T10:44:24;15.45;;;6.35;;
29730;SDS011;16639;51.488;0.152;2023-04-24T10:47:05;10.27;;;5.95;;
29730;SDS011;16639;51.488;0.152;2023-04-24T10:49:39;12.18;;;5.18;;
29730;SDS011;16639;51.488;0.152;2023-04-24T10:52:08;11.90;;;5.28;;
29730;SDS011;16639;51.488;0.152;2023-04-24T10:59:47;7.68;;;3.85;;
29730;SDS011;16639;51.488;0.152;2023-04-24T11:02:36;13.50;;;6.78;;
29730;SDS011;16639;51.488;0.152;2023-04-24T11:05:06;11.07;;;5.28;;
29730;SDS011;16639;51.488;0.152;2023-04-24T11:10:40;7.15;;;4.20;;
29730;SDS011;16639;51.488;0.152;2023-04-24T11:13:14;9.07;;;3.28;;
29730;SDS011;16639;51.488;0.152;2023-04-24T11:18:51;6.18;;;3.38;;
29730;SDS011;16639;51.488;0.152;2023-04-24T11:21:22;12.90;;;4.95;;
29730;SDS011;16639;51.488;0.152;2023-04-24T11:23:49;7.20;;;3.20;;
29730;SDS011;16639;51.488;0.152;2023-04-24T11:26:18;6.95;;;2.88;;
29730;SDS011;16639;51.488;0.152;2023-04-24T11:28:48;5.65;;;3.20;;
29730;SDS011;16639;51.488;0.152;2023-04-24T11:34:17;7.35;;;3.13;;
29730;SDS011;16639;51.488;0.152;2023-04-24T11:36:48;8.13;;;4.68;;
29730;SDS011;16639;51.488;0.152;2023-04-24T11:39:16;5.25;;;3.30;;
29730;SDS011;16639;51.488;0.152;2023-04-24T11:41:43;19.48;;;11.30;;
29730;SDS011;16639;51.488;0.152;2023-04-24T11:44:13;8.05;;;5.78;;
29730;SDS011;16639;51.488;0.152;2023-04-24T11:46:41;7.55;;;4.03;;
29730;SDS011;16639;51.488;0.152;2023-04-24T11:49:09;8.18;;;4.47;;
29730;SDS011;16639;51.488;0.152;2023-04-24T11:51:38;7.95;;;3.92;;
29730;SDS011;16639;51.488;0.152;2023-04-24T11:54:20;9.07;;;4.68;;
29730;SDS011;16639;51.488;0.152;2023-04-24T11:56:48;8.13;;;3.88;;
29730;SDS011;16639;51.488;0.152;2023-04-24T11:59:16;6.15;;;4.10;;
29730;SDS011;16639;51.488;0.152;2023-04-24T12:01:45;6.55;;;4.53;;
29730;SDS011;16639;51.488;0.152;2023-04-24T12:04:14;10.48;;;4.53;;
29730;SDS011;16639;51.488;0.152;2023-04-24T12:06:59;12.15;;;5.55;;
29730;SDS011;16639;51.488;0.152;2023-04-24T12:12:13;6.97;;;4.90;;
29730;SDS011;16639;51.488;0.152;2023-04-24T12:14:49;9.25;;;4.72;;
29730;SDS011;16639;51.488;0.152;2023-04-24T12:17:29;8.77;;;4.05;;
29730;SDS011;16639;51.488;0.152;2023-04-24T12:19:59;8.73;;;4.55;;
29730;SDS011;16639;51.488;0.152;2023-04-24T12:22:28;8.50;;;4.88;;
29730;SDS011;16639;51.488;0.152;2023-04-24T12:25:11;8.65;;;4.45;;
29730;SDS011;16639;51.488;0.152;2023-04-24T12:27:39;5.43;;;3.35;;
29730;SDS011;16639;51.488;0.152;2023-04-24T12:30:09;11.88;;;3.53;;
29730;SDS011;16639;51.488;0.152;2023-04-24T12:32:42;8.35;;;4.30;;
29730;SDS011;16639;51.488;0.152;2023-04-24T12:35:10;11.30;;;4.35;;
29730;SDS011;16639;51.488;0.152;2023-04-24T12:37:38;11.25;;;5.18;;
29730;SDS011;16639;51.488;0.152;2023-04-24T12:40:13;11.38;;;4.88;;
29730;SDS011;16639;51.488;0.152;2023-04-24T12:42:48;8.90;;;4.95;;
29730;SDS011;16639;51.488;0.152;2023-04-24T12:45:17;10.88;;;5.15;;
29730;SDS011;16639;51.488;0.152;2023-04-24T12:47:45;6.97;;;4.63;;
29730;SDS011;16639;51.488;0.152;2023-04-24T12:50:14;9.05;;;3.92;;
29730;SDS011;16639;51.488;0.152;2023-04-24T12:52:42;12.13;;;4.50;;
29730;SDS011;16639;51.488;0.152;2023-04-24T12:55:10;10.40;;;6.18;;
29730;SDS011;16639;51.488;0.152;2023-04-24T12:57:39;9.60;;;4.78;;
29730;SDS011;16639;51.488;0.152;2023-04-24T13:00:07;10.02;;;3.75;;
29730;SDS011;16639;51.488;0.152;2023-04-24T13:02:35;6.43;;;3.60;;
29730;SDS011;16639;51.488;0.152;2023-04-24T13:05:03;4.78;;;3.53;;
29730;SDS011;16639;51.488;0.152;2023-04-24T13:07:32;10.40;;;4.43;;
29730;SDS011;16639;51.488;0.152;2023-04-24T13:10:00;8.18;;;3.83;;
29730;SDS011;16639;51.488;0.152;2023-04-24T13:12:28;5.00;;;3.70;;
29730;SDS011;16639;51.488;0.152;2023-04-24T13:14:55;7.70;;;4.32;;
29730;SDS011;16639;51.488;0.152;2023-04-24T13:17:23;10.02;;;4.50;;
29730;SDS011;16639;51.488;0.152;2023-04-24T13:19:50;10.35;;;4.35;;
29730;SDS011;16639;51.488;0.152;2023-04-24T13:22:18;8.02;;;5.07;;
29730;SDS011;16639;51.488;0.152;2023-04-24T13:24:45;7.18;;;4.60;;
29730;SDS011;16639;51.488;0.152;2023-04-24T13:27:15;7.32;;;5.25;;
29730;SDS011;16639;51.488;0.152;2023-04-24T13:29:43;11.18;;;5.57;;
29730;SDS011;16639;51.488;0.152;2023-04-24T13:32:12;8.15;;;4.30;;
29730;SDS011;16639;51.488;0.152;2023-04-24T13:34:40;10.27;;;4.55;;
29730;SDS011;16639;51.488;0.152;2023-04-24T13:37:07;7.18;;;3.92;;
29730;SDS011;16639;51.488;0.152;2023-04-24T13:39:35;7.63;;;4.65;;
29730;SDS011;16639;51.488;0.152;2023-04-24T13:42:03;8.15;;;4.53;;
29730;SDS011;16639;51.488;0.152;2023-04-24T13:44:31;7.82;;;5.18;;
29730;SDS011;16639;51.488;0.152;2023-04-24T13:46:58;6.13;;;4.05;;
29730;SDS011;16639;51.488;0.152;2023-04-24T13:49:27;9.60;;;4.47;;
29730;SDS011;16639;51.488;0.152;2023-04-24T13:51:55;15.70;;;5.75;;
29730;SDS011;16639;51.488;0.152;2023-04-24T13:54:23;8.15;;;4.30;;
29730;SDS011;16639;51.488;0.152;2023-04-24T13:56:52;9.77;;;5.80;;
29730;SDS011;16639;51.488;0.152;2023-04-24T13:59:23;8.98;;;4.68;;
29730;SDS011;16639;51.488;0.152;2023-04-24T14:01:50;7.80;;;4.30;;
29730;SDS011;16639;51.488;0.152;2023-04-24T14:04:18;6.78;;;3.67;;
29730;SDS011;16639;51.488;0.152;2023-04-24T14:06:45;13.07;;;5.50;;
29730;SDS011;16639;51.488;0.152;2023-04-24T14:09:13;5.68;;;3.53;;
29730;SDS011;16639;51.488;0.152;2023-04-24T14:11:40;5.63;;;3.17;;
29730;SDS011;16639;51.488;0.152;2023-04-24T14:14:08;6.25;;;3.83;;
29730;SDS011;16639;51.488;0.152;2023-04-24T14:16:36;9.68;;;3.97;;
29730;SDS011;16639;51.488;0.152;2023-04-24T14:19:04;10.63;;;3.55;;
29730;SDS011;16639;51.488;0.152;2023-04-24T14:21:34;8.80;;;3.70;;
29730;SDS011;16639;51.488;0.152;2023-04-24T14:24:01;12.38;;;3.95;;
29730;SDS011;16639;51.488;0.152;2023-04-24T14:26:29;7.50;;;3.97;;
29730;SDS011;16639;51.488;0.152;2023-04-24T14:28:56;6.75;;;3.63;;
29730;SDS011;16639;51.488;0.152;2023-04-24T14:31:40;11.05;;;3.60;;
29730;SDS011;16639;51.488;0.152;2023-04-24T14:34:08;8.25;;;3.33;;
29730;SDS011;16639;51.488;0.152;2023-04-24T14:36:37;9.98;;;3.38;;
29730;SDS011;16639;51.488;0.152;2023-04-24T14:39:05;6.03;;;3.15;;
29730;SDS011;16639;51.488;0.152;2023-04-24T14:41:34;5.60;;;2.95;;
29730;SDS011;16639;51.488;0.152;2023-04-24T14:44:03;4.40;;;2.70;;
29730;SDS011;16639;51.488;0.152;2023-04-24T14:46:30;4.53;;;3.17;;
29730;SDS011;16639;51.488;0.152;2023-04-24T14:48:58;6.55;;;2.83;;
29730;SDS011;16639;51.488;0.152;2023-04-24T14:51:26;9.07;;;3.53;;
29730;SDS011;16639;51.488;0.152;2023-04-24T14:53:53;5.55;;;2.72;;
29730;SDS011;16639;51.488;0.152;2023-04-24T14:56:21;5.35;;;2.90;;
29730;SDS011;16639;51.488;0.152;2023-04-24T14:58:48;4.97;;;2.45;;
29730;SDS011;16639;51.488;0.152;2023-04-24T15:01:16;8.52;;;3.95;;
29730;SDS011;16639;51.488;0.152;2023-04-24T15:03:44;8.32;;;3.88;;
29730;SDS011;16639;51.488;0.152;2023-04-24T15:06:13;7.18;;;3.08;;
29730;SDS011;16639;51.488;0.152;2023-04-24T15:08:40;6.75;;;3.50;;
29730;SDS011;16639;51.488;0.152;2023-04-24T15:11:09;5.85;;;3.10;;
29730;SDS011;16639;51.488;0.152;2023-04-24T15:13:37;7.65;;;3.05;;
29730;SDS011;16639;51.488;0.152;2023-04-24T15:16:04;5.75;;;3.05;;
29730;SDS011;16639;51.488;0.152;2023-04-24T15:18:32;8.32;;;3.70;;
29730;SDS011;16639;51.488;0.152;2023-04-24T15:20:59;5.38;;;3.33;;
29730;SDS011;16639;51.488;0.152;2023-04-24T15:23:27;6.50;;;3.33;;
29730;SDS011;16639;51.488;0.152;2023-04-24T15:25:54;5.95;;;3.47;;
29730;SDS011;16639;51.488;0.152;2023-04-24T15:28:22;7.03;;;3.35;;
29730;SDS011;16639;51.488;0.152;2023-04-24T15:30:51;4.47;;;2.65;;
29730;SDS011;16639;51.488;0.152;2023-04-24T15:33:18;6.35;;;2.75;;
29730;SDS011;16639;51.488;0.152;2023-04-24T15:35:46;6.38;;;2.67;;
29730;SDS011;16639;51.488;0.152;2023-04-24T15:38:16;3.60;;;3.25;;
29730;SDS011;16639;51.488;0.152;2023-04-24T15:40:43;5.32;;;2.33;;